Gatesville, TX (76528)

2:48 AM CDT on September 23, 2014 (GMT -0500)
Rhudys on Cedar Ridge | Change Station
CLOSE
Current Station
Personal Weather Station
Location: Gatesville, TX
Elevation: 1043 ft
Nearby Weather Stations

Elev 1043 ft 31.45 °N, 97.70 °W | Updated 7 seconds ago

Clear
Clear
65.4 °F
Feels Like 65.4 °F
N
2.3
Wind Variable Wind from South
Gusts 2.3 mph

Today
High -- | Low -- °F
--% Chance of Precip.
Yesterday
High -- | Low -- °F
Precip. -- in
7:19 AM 7:26 PM
Waning Crescent, 1% visible
Pressure 30.18 in
Visibility 9.0 miles
Clouds Clear
Dew Point 55 °F
Humidity 70%
Rainfall 0.00 in
Snow Depth Not available.
UV 0 out of 12
Pollen 10.60 out of 12
Ozone Good
PM2.5 Good
Flu Activity Not available.
METAR KGOP 230710Z AUTO 09003KT 9SM CLR 19/13 A3018 RMK AO2

More Conditions Fewer Conditions

Pressure 30.18 in
Visibility 9.0 miles
Clouds Clear
Dew Point 55 °F
Humidity 70%
Rainfall 0.00 in
Snow Depth Not available.
UV 0 out of 12
Pollen 10.60 out of 12
Ozone Good
PM2.5 Good
Flu Activity Not available.
METAR KGOP 230710Z AUTO 09003KT 9SM CLR 19/13 A3018 RMK AO2

More Conditions Fewer Conditions

10-Day Weather Forecast

Almanac

Astronomy

Sep. 23, 2014 Rise Set
Actual Time 7:19 AM CDT 7:26 PM CDT
Civil Twilight 6:55 AM CDT 7:50 PM CDT
Nautical Twilight 6:27 AM CDT 8:18 PM CDT
Astronomical Twilight 5:58 AM CDT 8:47 PM CDT
Moon 6:46 AM CDT 7:06 PM CDT
Length of Visible Light 12h 54m
Length of Day
12h 06m
Tomorrow will be 1m 54s shorter.
Waning Crescent, 1% of the Moon is Illuminated
Today
Waning Crescent
Sep 24
New
Oct 1
First Quarter
Oct 8
Full
Oct 15
Last Quarter

Today's Extremes

State Highs State Lows

Community

WunderPhotos

Upload Photos

1,755,608 photos uploaded!

Nearby

Air Quality

  Air Quality AQ Index Pollutant
Yesterday Good
OZONE
Yesterday Good
PM2.5
Current Good
OZONE
Current Good
PM2.5
Tuesday Good
PM10
Tuesday Good
OZONE
Wednesday Moderate
OZONE
Wednesday Good
PM10
Thursday Moderate
OZONE
Thursday Good
PM10

Snow Depth

Station Depth Elevation
No new snow has been reported.

Earthquake Activity

City Distance Mag. Time & Date
No recent earthquake activity has been reported nearby.
Minimum magnitude displayed is 2.5.

Coastal Water Temperatures

Place Temperature
No Stations Reporting

Nearby Weather Stations